createdAt,value
2018-12-18T00:01:09.565Z,98.40
2018-12-18T00:03:39.457Z,98.70
2018-12-18T00:06:07.883Z,98.90
2018-12-18T00:08:36.135Z,98.90
2018-12-18T00:11:04.362Z,98.90
2018-12-18T00:13:32.666Z,98.80
2018-12-18T00:16:00.809Z,98.80
2018-12-18T00:18:29.088Z,98.80
2018-12-18T00:20:57.375Z,98.80
2018-12-18T00:23:25.588Z,98.80
2018-12-18T00:25:53.893Z,98.80
2018-12-18T00:28:22.170Z,98.90
2018-12-18T00:30:50.373Z,99.00
2018-12-18T00:33:18.529Z,99.00
2018-12-18T00:35:46.679Z,99.00
2018-12-18T00:38:14.904Z,99.10
2018-12-18T00:40:43.046Z,99.10
2018-12-18T00:43:11.266Z,99.20
2018-12-18T00:45:39.391Z,99.20
2018-12-18T00:48:07.549Z,99.30
2018-12-18T00:50:35.686Z,99.30
2018-12-18T00:53:03.820Z,99.20
2018-12-18T00:55:31.964Z,99.10
2018-12-18T00:58:00.167Z,99.00
2018-12-18T01:00:28.302Z,98.90
2018-12-18T01:02:56.503Z,98.80
2018-12-18T01:05:24.916Z,98.70
2018-12-18T01:07:54.340Z,98.70
2018-12-18T01:10:22.558Z,99.10
2018-12-18T01:12:50.772Z,99.00
2018-12-18T01:15:18.892Z,99.10
2018-12-18T01:17:47.016Z,99.00
2018-12-18T01:20:15.393Z,98.70
2018-12-18T01:22:43.532Z,99.00
2018-12-18T01:25:11.737Z,99.00
2018-12-18T01:27:39.864Z,98.90
2018-12-18T01:30:08.378Z,98.90
2018-12-18T01:32:36.561Z,99.00
2018-12-18T01:35:05.132Z,99.00
2018-12-18T01:37:33.271Z,99.00
2018-12-18T01:40:01.420Z,99.10
2018-12-18T01:42:29.573Z,99.10
2018-12-18T01:44:57.711Z,99.10
2018-12-18T01:47:26.158Z,99.10
2018-12-18T01:49:54.272Z,99.10
2018-12-18T01:52:22.405Z,99.40
2018-12-18T01:54:50.560Z,99.90
2018-12-18T01:57:18.693Z,99.80
2018-12-18T01:59:46.936Z,99.50
2018-12-18T02:02:15.128Z,99.40
2018-12-18T02:04:43.348Z,99.40
2018-12-18T02:07:11.492Z,99.30
2018-12-18T02:09:39.699Z,99.50
2018-12-18T02:12:07.835Z,99.30
2018-12-18T02:14:35.956Z,99.20
2018-12-18T02:17:04.169Z,99.20
2018-12-18T02:19:32.307Z,99.30
2018-12-18T02:22:00.439Z,99.50
2018-12-18T02:24:28.568Z,99.60
2018-12-18T02:26:56.795Z,99.80
2018-12-18T02:29:25.009Z,99.90
2018-12-18T02:31:53.129Z,99.90
2018-12-18T02:34:21.264Z,99.90
2018-12-18T02:36:49.383Z,99.90
2018-12-18T02:39:17.584Z,99.90
2018-12-18T02:41:45.803Z,99.90
2018-12-18T02:44:13.940Z,99.90
2018-12-18T02:46:42.076Z,99.90
2018-12-18T02:49:10.215Z,99.90
2018-12-18T02:51:38.724Z,99.90
2018-12-18T02:54:06.885Z,99.90
2018-12-18T02:56:35.024Z,99.90
2018-12-18T02:59:03.244Z,99.90
2018-12-18T03:01:31.450Z,99.90
2018-12-18T03:03:59.597Z,99.90
2018-12-18T03:06:27.728Z,99.90
2018-12-18T03:08:55.920Z,99.90
2018-12-18T03:11:24.317Z,99.90
2018-12-18T03:13:52.491Z,99.90
2018-12-18T03:16:20.702Z,99.90
2018-12-18T03:18:48.840Z,99.90
2018-12-18T03:21:16.980Z,99.90
2018-12-18T03:23:45.190Z,99.90
2018-12-18T03:26:13.400Z,99.90
2018-12-18T03:28:41.544Z,99.90
2018-12-18T03:31:10.069Z,99.90
2018-12-18T03:33:38.299Z,99.90
2018-12-18T03:36:06.500Z,99.90
2018-12-18T03:38:34.709Z,99.90
2018-12-18T03:41:02.997Z,99.90
2018-12-18T03:43:31.130Z,99.90
2018-12-18T03:45:59.531Z,99.90
2018-12-18T03:48:27.668Z,99.90
2018-12-18T03:50:55.871Z,99.90
2018-12-18T03:53:23.999Z,99.90
2018-12-18T03:55:52.487Z,99.90
2018-12-18T03:58:20.624Z,99.90
2018-12-18T04:00:48.766Z,99.90
2018-12-18T04:03:16.909Z,99.90
2018-12-18T04:05:45.053Z,99.90
2018-12-18T04:08:13.176Z,99.90
2018-12-18T04:10:41.384Z,99.90
2018-12-18T04:13:09.628Z,99.90
2018-12-18T04:15:37.844Z,99.90
2018-12-18T04:18:06.100Z,99.90
2018-12-18T04:20:34.373Z,99.90
2018-12-18T04:23:02.507Z,99.90
2018-12-18T04:25:30.786Z,99.90
2018-12-18T04:27:58.919Z,99.90
2018-12-18T04:30:27.061Z,99.90
2018-12-18T04:32:55.205Z,99.90
2018-12-18T04:35:23.340Z,99.90
2018-12-18T04:37:51.552Z,99.90
2018-12-18T04:40:19.668Z,99.90
2018-12-18T04:42:47.825Z,99.90
2018-12-18T04:45:16.032Z,99.90
2018-12-18T04:47:44.161Z,99.90
2018-12-18T04:50:12.521Z,99.90
2018-12-18T04:52:40.632Z,99.90
2018-12-18T04:55:08.921Z,99.90
2018-12-18T04:57:37.052Z,99.90
2018-12-18T05:00:06.809Z,99.90
2018-12-18T05:02:34.939Z,99.90
2018-12-18T05:05:03.150Z,99.90
2018-12-18T05:07:31.440Z,99.90
2018-12-18T05:09:59.567Z,99.90
2018-12-18T05:12:27.691Z,99.90
2018-12-18T05:14:55.833Z,99.90
2018-12-18T05:17:23.992Z,99.90
2018-12-18T05:19:52.207Z,99.90
2018-12-18T05:22:20.420Z,99.90
2018-12-18T05:24:48.553Z,99.90
2018-12-18T05:27:16.776Z,99.90
2018-12-18T05:29:45.156Z,99.90
2018-12-18T05:32:13.392Z,99.90
2018-12-18T05:34:41.533Z,99.90
2018-12-18T05:37:09.661Z,99.90
2018-12-18T05:39:37.827Z,99.90
2018-12-18T05:42:05.969Z,99.90
2018-12-18T05:44:34.167Z,99.90
2018-12-18T05:47:05.641Z,99.90
2018-12-18T05:49:33.925Z,99.90
2018-12-18T05:52:02.048Z,99.90
2018-12-18T05:54:30.396Z,99.90
2018-12-18T05:56:58.701Z,99.90
2018-12-18T05:59:26.827Z,99.90
2018-12-18T06:01:54.972Z,99.90
2018-12-18T06:04:23.112Z,99.90
2018-12-18T06:06:51.404Z,99.90
2018-12-18T06:09:19.882Z,99.90
2018-12-18T06:11:48.081Z,99.90
2018-12-18T06:14:16.232Z,99.90
2018-12-18T06:16:44.357Z,99.90
2018-12-18T06:19:12.520Z,99.90
2018-12-18T06:21:40.866Z,99.90
2018-12-18T06:24:09.041Z,99.90
2018-12-18T06:26:37.283Z,99.90
2018-12-18T06:29:05.491Z,99.90
2018-12-18T06:31:33.823Z,99.90
2018-12-18T06:34:02.297Z,99.90
2018-12-18T06:36:30.726Z,99.90
2018-12-18T06:38:59.015Z,99.90
2018-12-18T06:41:27.148Z,99.90
2018-12-18T06:43:56.275Z,99.90
2018-12-18T06:46:24.772Z,99.90
2018-12-18T06:48:53.054Z,99.90
2018-12-18T06:51:21.445Z,99.90
2018-12-18T06:53:49.569Z,99.90
2018-12-18T06:56:17.879Z,99.90
2018-12-18T06:58:46.553Z,99.90
2018-12-18T07:01:14.716Z,99.90
2018-12-18T07:03:42.973Z,99.90
2018-12-18T07:06:11.384Z,99.90
2018-12-18T07:08:39.532Z,99.90
2018-12-18T07:11:07.766Z,99.90
2018-12-18T07:13:35.982Z,99.90
2018-12-18T07:16:04.207Z,99.90
2018-12-18T07:18:32.488Z,99.90
2018-12-18T07:21:00.642Z,99.90
2018-12-18T07:23:29.254Z,99.90
2018-12-18T07:25:57.749Z,99.90
2018-12-18T07:28:25.899Z,99.90
2018-12-18T07:30:54.216Z,99.90
2018-12-18T07:33:22.419Z,99.90
2018-12-18T07:35:50.865Z,99.90
2018-12-18T07:38:19.076Z,99.90
2018-12-18T07:40:47.294Z,99.90
2018-12-18T07:43:15.665Z,99.90
2018-12-18T07:45:43.900Z,99.90
2018-12-18T07:48:12.037Z,99.90
2018-12-18T07:50:40.191Z,99.90
2018-12-18T07:53:08.365Z,99.90
2018-12-18T07:55:36.509Z,99.90
2018-12-18T07:58:05.195Z,99.90
2018-12-18T08:00:33.443Z,99.90
2018-12-18T08:03:01.830Z,99.90
2018-12-18T08:05:30.210Z,99.90
2018-12-18T08:07:58.481Z,99.90
2018-12-18T08:10:26.723Z,99.90
2018-12-18T08:12:54.875Z,99.90
2018-12-18T08:15:23.084Z,99.90
2018-12-18T08:17:51.325Z,99.90
2018-12-18T08:20:19.524Z,99.90
2018-12-18T08:22:47.780Z,99.90
2018-12-18T08:25:16.028Z,99.90
2018-12-18T08:27:44.233Z,99.90
2018-12-18T08:30:13.401Z,99.90
2018-12-18T08:32:41.658Z,99.90
2018-12-18T08:35:09.882Z,99.90
2018-12-18T08:37:39.257Z,99.90
2018-12-18T08:40:08.111Z,99.90
2018-12-18T08:42:36.241Z,99.90
2018-12-18T08:45:05.440Z,99.90
2018-12-18T08:47:33.580Z,99.90
2018-12-18T08:50:01.830Z,99.90
2018-12-18T08:52:30.048Z,99.90
2018-12-18T08:54:58.284Z,99.90
2018-12-18T08:57:26.500Z,99.90
2018-12-18T08:59:54.668Z,99.90
2018-12-18T09:02:22.836Z,99.90
2018-12-18T09:04:51.053Z,99.90
2018-12-18T09:07:19.204Z,99.90
2018-12-18T09:09:47.488Z,99.90
2018-12-18T09:12:17.129Z,99.90
2018-12-18T09:14:51.783Z,99.90
2018-12-18T09:17:25.629Z,99.40
2018-12-18T09:19:53.836Z,99.40
2018-12-18T09:22:22.136Z,98.70
2018-12-18T09:24:50.412Z,98.60
2018-12-18T09:27:18.585Z,98.90
2018-12-18T09:29:46.769Z,98.90
2018-12-18T09:32:14.947Z,98.50
2018-12-18T09:34:43.089Z,98.20
2018-12-18T09:37:11.269Z,98.60
2018-12-18T09:39:41.654Z,98.80
2018-12-18T09:42:15.740Z,98.60
2018-12-18T09:44:43.880Z,98.40
2018-12-18T09:47:12.209Z,98.70
2018-12-18T09:49:40.367Z,98.00
2018-12-18T09:52:15.089Z,97.70
2018-12-18T09:54:43.295Z,96.80
2018-12-18T09:57:17.043Z,97.60
2018-12-18T09:59:45.248Z,97.30
2018-12-18T10:02:13.465Z,97.10
2018-12-18T10:04:41.608Z,97.00
2018-12-18T10:07:09.761Z,96.00
2018-12-18T10:09:37.963Z,96.00
2018-12-18T10:12:06.194Z,96.50
2018-12-18T10:14:34.369Z,95.80
2018-12-18T10:17:02.574Z,96.10
2018-12-18T10:19:30.724Z,95.40
2018-12-18T10:21:58.862Z,95.70
2018-12-18T10:24:27.115Z,93.50
2018-12-18T10:26:55.323Z,93.20
2018-12-18T10:29:23.460Z,93.80
2018-12-18T10:31:51.625Z,92.70
2018-12-18T10:34:19.785Z,92.70
2018-12-18T10:36:47.997Z,92.00
2018-12-18T10:39:16.137Z,92.20
2018-12-18T10:41:44.283Z,91.20
2018-12-18T10:44:12.407Z,91.10
2018-12-18T10:46:40.644Z,90.60
2018-12-18T10:49:08.785Z,90.70
2018-12-18T10:51:36.917Z,90.90
2018-12-18T10:54:05.305Z,90.30
2018-12-18T10:56:33.444Z,90.30
2018-12-18T10:59:01.733Z,90.20
2018-12-18T11:01:35.144Z,90.10
2018-12-18T11:04:03.451Z,89.40
2018-12-18T11:06:31.577Z,88.40
2018-12-18T11:08:59.788Z,89.40
2018-12-18T11:11:27.917Z,90.00
2018-12-18T11:13:56.162Z,90.30
2018-12-18T11:16:24.287Z,90.20
2018-12-18T11:18:52.505Z,88.80
2018-12-18T11:21:20.637Z,89.70
2018-12-18T11:23:48.860Z,89.50
2018-12-18T11:26:17.009Z,89.10
2018-12-18T11:28:45.239Z,89.10
2018-12-18T11:31:13.493Z,89.20
2018-12-18T11:33:41.804Z,88.90
2018-12-18T11:36:16.210Z,89.10
2018-12-18T11:38:40.213Z,90.00
2018-12-18T11:41:08.429Z,89.70
2018-12-18T11:43:36.567Z,90.00
2018-12-18T11:46:04.885Z,89.30
2018-12-18T11:48:33.031Z,89.30
2018-12-18T11:51:01.185Z,88.90
2018-12-18T11:53:29.337Z,88.90
2018-12-18T11:55:57.516Z,88.90
2018-12-18T11:58:25.742Z,88.50
2018-12-18T12:00:53.936Z,88.20
2018-12-18T12:03:22.225Z,89.10
2018-12-18T12:05:50.368Z,87.30
2018-12-18T12:08:18.487Z,88.40
2018-12-18T12:10:46.639Z,87.60
2018-12-18T12:14:18.026Z,87.30
2018-12-18T12:16:46.239Z,87.00
2018-12-18T12:19:14.385Z,87.60
2018-12-18T12:21:42.534Z,87.70
2018-12-18T12:24:10.680Z,88.00
2018-12-18T12:26:40.808Z,88.40
2018-12-18T12:29:08.976Z,88.30
2018-12-18T12:31:37.137Z,88.00
2018-12-18T12:34:05.577Z,87.90
2018-12-18T12:36:33.708Z,88.00
2018-12-18T12:39:01.951Z,88.10
2018-12-18T12:41:30.097Z,87.80
2018-12-18T12:43:58.233Z,87.30
2018-12-18T12:46:26.443Z,86.70
2018-12-18T12:48:55.574Z,86.90
2018-12-18T12:51:24.035Z,87.30
2018-12-18T12:53:52.329Z,87.70
2018-12-18T12:56:20.476Z,88.00
2018-12-18T12:58:48.621Z,88.60
2018-12-18T13:01:16.838Z,88.80
2018-12-18T13:03:44.984Z,89.00
2018-12-18T13:06:13.224Z,89.50
2018-12-18T13:08:41.461Z,89.40
2018-12-18T13:11:09.617Z,89.30
2018-12-18T13:13:37.770Z,88.70
2018-12-18T13:16:05.904Z,88.60
2018-12-18T13:18:34.127Z,88.20
2018-12-18T13:21:02.317Z,87.80
2018-12-18T13:23:30.514Z,88.00
2018-12-18T13:25:58.753Z,88.00
2018-12-18T13:28:26.909Z,88.00
2018-12-18T13:30:55.064Z,88.30
2018-12-18T13:33:23.215Z,88.00
2018-12-18T13:35:51.524Z,87.70
2018-12-18T13:38:19.729Z,87.50
2018-12-18T13:40:47.930Z,88.00
2018-12-18T13:43:16.189Z,86.80
2018-12-18T13:45:44.433Z,86.80
2018-12-18T13:48:12.884Z,86.30
2018-12-18T13:50:41.024Z,86.20
2018-12-18T13:53:09.211Z,86.00
2018-12-18T13:55:37.455Z,86.00
2018-12-18T13:58:05.751Z,86.30
2018-12-18T14:00:34.008Z,86.80
2018-12-18T14:03:02.200Z,87.10
2018-12-18T14:05:30.370Z,87.70
2018-12-18T14:07:58.600Z,88.80
2018-12-18T14:10:26.811Z,89.20
2018-12-18T14:12:57.010Z,89.90
2018-12-18T14:15:25.743Z,90.10
2018-12-18T14:17:54.028Z,90.50
2018-12-18T14:20:22.396Z,90.70
2018-12-18T14:22:50.529Z,90.90
2018-12-18T14:25:18.731Z,91.20
2018-12-18T14:27:46.860Z,91.50
2018-12-18T14:30:15.943Z,91.60
2018-12-18T14:32:44.082Z,91.80
2018-12-18T14:35:12.320Z,92.00
2018-12-18T14:37:40.452Z,92.20
2018-12-18T14:40:08.689Z,92.50
2018-12-18T14:42:36.817Z,92.60
2018-12-18T14:45:05.627Z,92.80
2018-12-18T14:47:33.820Z,93.10
2018-12-18T14:50:02.053Z,93.20
2018-12-18T14:52:30.213Z,93.60
2018-12-18T14:54:58.356Z,93.90
2018-12-18T14:57:26.559Z,94.20
2018-12-18T14:59:54.682Z,94.50
2018-12-18T15:02:22.965Z,94.70
2018-12-18T15:04:51.094Z,94.80
2018-12-18T15:07:19.262Z,94.90
2018-12-18T15:09:47.481Z,95.10
2018-12-18T15:12:15.776Z,95.40
2018-12-18T15:14:43.923Z,95.40
2018-12-18T15:17:12.099Z,95.60
2018-12-18T15:19:40.316Z,95.60
2018-12-18T15:22:08.555Z,95.60
2018-12-18T15:24:36.706Z,95.90
2018-12-18T15:27:04.933Z,95.80
2018-12-18T15:29:33.235Z,96.00
2018-12-18T15:32:01.486Z,96.20
2018-12-18T15:34:29.612Z,96.30
2018-12-18T15:36:57.786Z,96.30
2018-12-18T15:39:25.917Z,96.40
2018-12-18T15:41:54.038Z,96.40
2018-12-18T15:44:22.358Z,96.40
2018-12-18T15:46:50.525Z,96.40
2018-12-18T15:49:18.779Z,97.10
2018-12-18T15:51:47.181Z,96.80
2018-12-18T15:54:15.491Z,97.00
2018-12-18T15:56:43.754Z,97.30
2018-12-18T15:59:11.918Z,97.30
2018-12-18T16:01:40.176Z,97.30
2018-12-18T16:04:08.295Z,97.30
2018-12-18T16:06:36.453Z,97.20
2018-12-18T16:09:07.481Z,97.20
2018-12-18T16:11:35.848Z,97.30
2018-12-18T16:14:04.192Z,97.20
2018-12-18T16:16:32.471Z,97.20
2018-12-18T16:19:00.601Z,97.50
2018-12-18T16:21:28.779Z,97.80
2018-12-18T16:23:56.946Z,97.70
2018-12-18T16:26:25.103Z,97.70
2018-12-18T16:28:53.217Z,97.70
2018-12-18T16:31:21.384Z,97.90
2018-12-18T16:33:49.502Z,97.70
2018-12-18T16:36:17.692Z,98.00
2018-12-18T16:38:45.827Z,98.20
2018-12-18T16:41:14.023Z,98.10
2018-12-18T16:43:42.199Z,97.80
2018-12-18T16:46:10.323Z,97.90
2018-12-18T16:48:38.490Z,98.10
2018-12-18T16:51:06.614Z,98.20
2018-12-18T16:53:34.771Z,98.20
2018-12-18T16:56:03.097Z,98.40
2018-12-18T16:58:31.336Z,98.30
2018-12-18T17:00:59.452Z,98.20
2018-12-18T17:03:27.626Z,98.00
2018-12-18T17:05:55.762Z,97.90
2018-12-18T17:08:24.168Z,97.80
2018-12-18T17:10:52.300Z,97.80
2018-12-18T17:13:20.531Z,97.80
2018-12-18T17:15:48.815Z,97.80
2018-12-18T17:18:16.975Z,97.70
2018-12-18T17:20:45.110Z,98.10
2018-12-18T17:23:13.256Z,98.00
2018-12-18T17:25:41.388Z,98.00
2018-12-18T17:28:09.627Z,98.10
2018-12-18T17:30:37.764Z,98.10
2018-12-18T17:33:06.033Z,98.30
2018-12-18T17:35:34.172Z,98.60
2018-12-18T17:38:02.429Z,98.50
2018-12-18T17:40:31.048Z,98.50
2018-12-18T17:42:59.276Z,98.60
2018-12-18T17:45:27.401Z,98.40
2018-12-18T17:47:55.554Z,98.30
2018-12-18T17:50:23.856Z,98.40
2018-12-18T17:52:52.033Z,98.40
2018-12-18T17:55:20.163Z,98.40
2018-12-18T17:57:48.448Z,98.40
2018-12-18T18:00:16.659Z,98.60
2018-12-18T18:02:44.869Z,98.70
2018-12-18T18:05:13.224Z,98.50
2018-12-18T18:07:43.044Z,98.80
2018-12-18T18:10:11.556Z,98.80
2018-12-18T18:12:39.817Z,98.60
2018-12-18T18:15:08.052Z,98.50
2018-12-18T18:17:36.208Z,98.50
2018-12-18T18:20:05.539Z,98.50
2018-12-18T18:22:34.369Z,98.60
2018-12-18T18:25:02.532Z,98.70
2018-12-18T18:27:30.676Z,98.70
2018-12-18T18:29:58.825Z,98.60
2018-12-18T18:32:27.057Z,98.50
2018-12-18T18:34:55.206Z,98.40
2018-12-18T18:37:23.493Z,98.60
2018-12-18T18:39:51.661Z,98.80
2018-12-18T18:42:19.881Z,99.00
2018-12-18T18:44:48.069Z,98.90
2018-12-18T18:47:16.390Z,98.80
2018-12-18T18:49:44.560Z,98.70
2018-12-18T18:52:12.728Z,98.80
2018-12-18T18:54:40.879Z,98.90
2018-12-18T18:57:09.331Z,99.00
2018-12-18T18:59:37.604Z,99.00
2018-12-18T19:02:05.935Z,98.80
2018-12-18T19:04:34.831Z,98.70
2018-12-18T19:07:03.244Z,98.60
2018-12-18T19:09:31.523Z,98.70
2018-12-18T19:11:59.848Z,98.70
2018-12-18T19:14:28.069Z,98.80
2018-12-18T19:16:56.344Z,98.80
2018-12-18T19:19:24.678Z,98.80
2018-12-18T19:21:52.858Z,98.80
2018-12-18T19:24:21.052Z,98.70
2018-12-18T19:26:49.253Z,98.70
2018-12-18T19:29:17.431Z,98.70
2018-12-18T19:31:45.552Z,98.60
2018-12-18T19:34:13.737Z,98.60
2018-12-18T19:36:42.153Z,98.60
2018-12-18T19:39:10.608Z,98.60
2018-12-18T19:41:38.769Z,98.60
2018-12-18T19:44:07.040Z,98.60
2018-12-18T19:46:35.293Z,98.70
2018-12-18T19:49:03.796Z,98.80
2018-12-18T19:51:31.920Z,99.10
2018-12-18T19:54:00.069Z,98.90
2018-12-18T19:56:28.333Z,98.80
2018-12-18T19:58:56.582Z,98.80
2018-12-18T20:01:24.797Z,98.90
2018-12-18T20:03:53.024Z,99.00
2018-12-18T20:06:21.152Z,99.40
2018-12-18T20:08:49.333Z,99.10
2018-12-18T20:11:17.475Z,99.00
2018-12-18T20:13:45.792Z,99.00
2018-12-18T20:16:13.929Z,99.00
2018-12-18T20:18:42.225Z,99.00
2018-12-18T20:21:10.383Z,99.00
2018-12-18T20:23:38.943Z,98.80
2018-12-18T20:26:09.143Z,98.80
2018-12-18T20:28:37.638Z,98.80
2018-12-18T20:31:06.089Z,98.70
2018-12-18T20:33:34.288Z,98.60
2018-12-18T20:36:02.661Z,98.50
2018-12-18T20:38:30.882Z,98.50
2018-12-18T20:40:59.068Z,98.60
2018-12-18T20:43:27.263Z,98.60
2018-12-18T20:45:55.736Z,99.00
2018-12-18T20:48:24.163Z,99.00
2018-12-18T20:50:52.642Z,99.00
2018-12-18T20:53:20.870Z,99.10
2018-12-18T20:55:49.031Z,99.10
2018-12-18T20:58:17.172Z,99.00
2018-12-18T21:00:45.626Z,98.90
2018-12-18T21:03:14.354Z,98.80
2018-12-18T21:05:45.377Z,98.80
2018-12-18T21:08:13.855Z,98.90
2018-12-18T21:10:42.169Z,99.00
2018-12-18T21:13:15.998Z,99.00
2018-12-18T21:15:44.285Z,99.10
2018-12-18T21:18:12.970Z,99.10
2018-12-18T21:20:41.279Z,99.10
2018-12-18T21:23:09.508Z,99.20
2018-12-18T21:25:37.865Z,99.40
2018-12-18T21:28:06.491Z,99.50
2018-12-18T21:30:34.793Z,99.60
2018-12-18T21:33:03.151Z,99.70
2018-12-18T21:35:32.249Z,99.70
2018-12-18T21:38:00.698Z,99.60
2018-12-18T21:40:29.331Z,99.40
2018-12-18T21:42:57.626Z,99.40
2018-12-18T21:45:25.942Z,99.40
2018-12-18T21:47:54.652Z,99.40
2018-12-18T21:50:23.240Z,99.50
2018-12-18T21:52:51.987Z,99.50
2018-12-18T21:55:20.254Z,99.70
2018-12-18T21:57:48.507Z,99.80
2018-12-18T22:00:16.851Z,99.90
2018-12-18T22:02:45.717Z,99.90
2018-12-18T22:05:13.998Z,99.90
2018-12-18T22:07:42.263Z,99.90
2018-12-18T22:10:10.997Z,99.90
2018-12-18T22:12:39.443Z,99.90
2018-12-18T22:15:07.793Z,99.90
2018-12-18T22:17:36.150Z,99.90
2018-12-18T22:20:05.567Z,99.80
2018-12-18T22:22:33.839Z,99.80
2018-12-18T22:25:02.031Z,99.70
2018-12-18T22:27:30.254Z,99.70
2018-12-18T22:29:58.467Z,99.80
2018-12-18T22:32:27.049Z,99.80
2018-12-18T22:34:55.520Z,99.90
2018-12-18T22:37:23.656Z,99.90
2018-12-18T22:39:51.888Z,99.90
2018-12-18T22:42:20.174Z,99.90
2018-12-18T22:44:48.418Z,99.90
2018-12-18T22:47:16.748Z,99.90
2018-12-18T22:49:45.281Z,99.90
2018-12-18T22:52:13.612Z,99.90
2018-12-18T22:54:42.060Z,99.90
2018-12-18T22:57:10.552Z,99.90
2018-12-18T22:59:39.134Z,99.80
2018-12-18T23:02:12.779Z,99.80
2018-12-18T23:04:41.462Z,99.80
2018-12-18T23:07:09.766Z,99.80
2018-12-18T23:09:38.454Z,99.80
2018-12-18T23:12:06.624Z,99.80
2018-12-18T23:14:34.837Z,99.70
2018-12-18T23:17:03.460Z,99.60
2018-12-18T23:19:31.588Z,99.60
2018-12-18T23:21:59.749Z,99.70
2018-12-18T23:24:27.977Z,99.80
2018-12-18T23:26:56.224Z,99.80
2018-12-18T23:29:24.623Z,99.80
2018-12-18T23:31:52.843Z,99.80
2018-12-18T23:34:21.411Z,99.80
2018-12-18T23:36:50.101Z,99.80
2018-12-18T23:39:18.581Z,99.70
2018-12-18T23:41:47.357Z,99.60
2018-12-18T23:44:16.117Z,99.60
2018-12-18T23:46:44.385Z,99.50
2018-12-18T23:49:12.589Z,99.50
2018-12-18T23:51:40.825Z,99.50
2018-12-18T23:54:08.977Z,99.40
2018-12-18T23:56:37.370Z,99.40
2018-12-18T23:59:05.989Z,99.50
